sensor_id;sensor_type;location;lat;lon;timestamp;temperature;humidity
82243;DHT22;71844;51.528;4.442;2023-12-20T00:00:29;6.60;91.80
82243;DHT22;71844;51.528;4.442;2023-12-20T00:02:56;6.60;91.60
82243;DHT22;71844;51.528;4.442;2023-12-20T00:05:23;6.60;91.20
82243;DHT22;71844;51.528;4.442;2023-12-20T00:07:50;6.60;90.80
82243;DHT22;71844;51.528;4.442;2023-12-20T00:10:17;6.50;90.50
82243;DHT22;71844;51.528;4.442;2023-12-20T00:12:44;6.50;90.20
82243;DHT22;71844;51.528;4.442;2023-12-20T00:15:11;6.40;90.10
82243;DHT22;71844;51.528;4.442;2023-12-20T00:17:38;6.40;90.00
82243;DHT22;71844;51.528;4.442;2023-12-20T00:20:05;6.30;90.10
82243;DHT22;71844;51.528;4.442;2023-12-20T00:22:33;6.30;90.10
82243;DHT22;71844;51.528;4.442;2023-12-20T00:24:59;6.30;90.00
82243;DHT22;71844;51.528;4.442;2023-12-20T00:27:26;6.30;90.00
82243;DHT22;71844;51.528;4.442;2023-12-20T00:29:53;6.20;90.10
82243;DHT22;71844;51.528;4.442;2023-12-20T00:32:20;6.20;90.20
82243;DHT22;71844;51.528;4.442;2023-12-20T00:34:47;6.20;90.10
82243;DHT22;71844;51.528;4.442;2023-12-20T00:37:13;6.20;90.00
82243;DHT22;71844;51.528;4.442;2023-12-20T00:39:40;6.10;89.90
82243;DHT22;71844;51.528;4.442;2023-12-20T00:42:07;6.10;89.80
82243;DHT22;71844;51.528;4.442;2023-12-20T00:44:34;6.10;89.90
82243;DHT22;71844;51.528;4.442;2023-12-20T00:47:01;6.10;89.80
82243;DHT22;71844;51.528;4.442;2023-12-20T00:49:28;6.10;89.90
82243;DHT22;71844;51.528;4.442;2023-12-20T00:51:55;6.10;90.00
82243;DHT22;71844;51.528;4.442;2023-12-20T00:54:22;6.10;90.00
82243;DHT22;71844;51.528;4.442;2023-12-20T00:56:48;6.10;90.00
82243;DHT22;71844;51.528;4.442;2023-12-20T00:59:16;6.10;90.00
82243;DHT22;71844;51.528;4.442;2023-12-20T01:01:43;6.00;90.00
82243;DHT22;71844;51.528;4.442;2023-12-20T01:04:10;6.00;90.00
82243;DHT22;71844;51.528;4.442;2023-12-20T01:06:37;6.00;90.10
82243;DHT22;71844;51.528;4.442;2023-12-20T01:09:05;6.10;90.50
82243;DHT22;71844;51.528;4.442;2023-12-20T01:11:32;6.10;90.90
82243;DHT22;71844;51.528;4.442;2023-12-20T01:13:58;6.10;91.30
82243;DHT22;71844;51.528;4.442;2023-12-20T01:16:25;6.20;91.50
82243;DHT22;71844;51.528;4.442;2023-12-20T01:18:52;6.20;91.60
82243;DHT22;71844;51.528;4.442;2023-12-20T01:21:19;6.30;91.80
82243;DHT22;71844;51.528;4.442;2023-12-20T01:23:46;6.30;91.90
82243;DHT22;71844;51.528;4.442;2023-12-20T01:26:14;6.30;91.90
82243;DHT22;71844;51.528;4.442;2023-12-20T01:28:41;6.40;92.00
82243;DHT22;71844;51.528;4.442;2023-12-20T01:31:08;6.40;91.90
82243;DHT22;71844;51.528;4.442;2023-12-20T01:33:35;6.40;91.70
82243;DHT22;71844;51.528;4.442;2023-12-20T01:36:03;6.40;91.60
82243;DHT22;71844;51.528;4.442;2023-12-20T01:38:30;6.40;91.60
82243;DHT22;71844;51.528;4.442;2023-12-20T01:40:57;6.40;91.50
82243;DHT22;71844;51.528;4.442;2023-12-20T01:43:24;6.40;91.60
82243;DHT22;71844;51.528;4.442;2023-12-20T01:45:56;6.40;91.60
82243;DHT22;71844;51.528;4.442;2023-12-20T01:48:25;6.50;91.60
82243;DHT22;71844;51.528;4.442;2023-12-20T01:50:52;6.50;91.60
82243;DHT22;71844;51.528;4.442;2023-12-20T01:53:22;6.50;91.40
82243;DHT22;71844;51.528;4.442;2023-12-20T01:55:52;6.50;91.40
82243;DHT22;71844;51.528;4.442;2023-12-20T01:58:21;6.50;91.70
82243;DHT22;71844;51.528;4.442;2023-12-20T02:00:49;6.50;91.80
82243;DHT22;71844;51.528;4.442;2023-12-20T02:03:17;6.50;92.10
82243;DHT22;71844;51.528;4.442;2023-12-20T02:05:45;6.60;92.00
82243;DHT22;71844;51.528;4.442;2023-12-20T02:08:12;6.60;92.10
82243;DHT22;71844;51.528;4.442;2023-12-20T02:10:39;6.60;92.20
82243;DHT22;71844;51.528;4.442;2023-12-20T02:13:07;6.60;92.10
82243;DHT22;71844;51.528;4.442;2023-12-20T02:15:34;6.60;92.20
82243;DHT22;71844;51.528;4.442;2023-12-20T02:18:04;6.70;92.20
82243;DHT22;71844;51.528;4.442;2023-12-20T02:20:31;6.70;92.40
82243;DHT22;71844;51.528;4.442;2023-12-20T02:22:58;6.70;92.40
82243;DHT22;71844;51.528;4.442;2023-12-20T02:25:25;6.70;92.40
82243;DHT22;71844;51.528;4.442;2023-12-20T02:27:52;6.80;92.40
82243;DHT22;71844;51.528;4.442;2023-12-20T02:30:19;6.80;92.40
82243;DHT22;71844;51.528;4.442;2023-12-20T02:32:46;6.80;92.60
82243;DHT22;71844;51.528;4.442;2023-12-20T02:35:13;6.80;92.40
82243;DHT22;71844;51.528;4.442;2023-12-20T02:37:40;6.80;92.30
82243;DHT22;71844;51.528;4.442;2023-12-20T02:40:07;6.80;92.10
82243;DHT22;71844;51.528;4.442;2023-12-20T02:42:34;6.80;91.90
82243;DHT22;71844;51.528;4.442;2023-12-20T02:45:01;6.70;91.70
82243;DHT22;71844;51.528;4.442;2023-12-20T02:47:28;6.70;91.60
82243;DHT22;71844;51.528;4.442;2023-12-20T02:49:56;6.70;91.60
82243;DHT22;71844;51.528;4.442;2023-12-20T02:52:24;6.70;91.70
82243;DHT22;71844;51.528;4.442;2023-12-20T02:57:36;6.70;92.00
82243;DHT22;71844;51.528;4.442;2023-12-20T03:00:03;6.70;92.10
82243;DHT22;71844;51.528;4.442;2023-12-20T03:02:30;6.70;92.00
82243;DHT22;71844;51.528;4.442;2023-12-20T03:04:57;6.70;91.90
82243;DHT22;71844;51.528;4.442;2023-12-20T03:07:26;6.60;91.90
82243;DHT22;71844;51.528;4.442;2023-12-20T03:09:53;6.60;91.90
82243;DHT22;71844;51.528;4.442;2023-12-20T03:12:40;6.60;92.00
82243;DHT22;71844;51.528;4.442;2023-12-20T03:15:08;6.70;91.90
82243;DHT22;71844;51.528;4.442;2023-12-20T03:17:34;6.70;91.80
82243;DHT22;71844;51.528;4.442;2023-12-20T03:20:01;6.60;91.40
82243;DHT22;71844;51.528;4.442;2023-12-20T03:22:28;6.50;91.00
82243;DHT22;71844;51.528;4.442;2023-12-20T03:24:55;6.50;90.70
82243;DHT22;71844;51.528;4.442;2023-12-20T03:27:22;6.40;90.60
82243;DHT22;71844;51.528;4.442;2023-12-20T03:29:49;6.40;90.60
82243;DHT22;71844;51.528;4.442;2023-12-20T03:32:16;6.40;90.70
82243;DHT22;71844;51.528;4.442;2023-12-20T03:34:42;6.40;90.60
82243;DHT22;71844;51.528;4.442;2023-12-20T03:37:09;6.30;90.60
82243;DHT22;71844;51.528;4.442;2023-12-20T03:39:36;6.30;90.60
82243;DHT22;71844;51.528;4.442;2023-12-20T03:42:03;6.30;90.50
82243;DHT22;71844;51.528;4.442;2023-12-20T03:44:30;6.30;90.60
82243;DHT22;71844;51.528;4.442;2023-12-20T03:46:57;6.20;90.50
82243;DHT22;71844;51.528;4.442;2023-12-20T03:49:24;6.20;90.50
82243;DHT22;71844;51.528;4.442;2023-12-20T03:51:51;6.20;90.50
82243;DHT22;71844;51.528;4.442;2023-12-20T03:54:18;6.20;90.50
82243;DHT22;71844;51.528;4.442;2023-12-20T03:56:45;6.20;90.50
82243;DHT22;71844;51.528;4.442;2023-12-20T03:59:12;6.20;90.50
82243;DHT22;71844;51.528;4.442;2023-12-20T04:01:38;6.10;90.50
82243;DHT22;71844;51.528;4.442;2023-12-20T04:04:09;6.10;90.50
82243;DHT22;71844;51.528;4.442;2023-12-20T04:06:37;6.10;90.40
82243;DHT22;71844;51.528;4.442;2023-12-20T04:09:04;6.10;90.30
82243;DHT22;71844;51.528;4.442;2023-12-20T04:11:31;6.10;90.20
82243;DHT22;71844;51.528;4.442;2023-12-20T04:13:58;6.10;90.30
82243;DHT22;71844;51.528;4.442;2023-12-20T04:16:24;6.10;90.30
82243;DHT22;71844;51.528;4.442;2023-12-20T04:18:51;6.10;90.30
82243;DHT22;71844;51.528;4.442;2023-12-20T04:21:18;6.10;90.40
82243;DHT22;71844;51.528;4.442;2023-12-20T04:23:45;6.10;90.30
82243;DHT22;71844;51.528;4.442;2023-12-20T04:26:12;6.10;90.40
82243;DHT22;71844;51.528;4.442;2023-12-20T04:28:39;6.10;90.40
82243;DHT22;71844;51.528;4.442;2023-12-20T04:31:06;6.10;90.20
82243;DHT22;71844;51.528;4.442;2023-12-20T04:33:32;6.10;90.30
82243;DHT22;71844;51.528;4.442;2023-12-20T04:35:59;6.10;90.20
82243;DHT22;71844;51.528;4.442;2023-12-20T04:38:27;6.10;90.20
82243;DHT22;71844;51.528;4.442;2023-12-20T04:40:53;6.10;90.20
82243;DHT22;71844;51.528;4.442;2023-12-20T04:43:20;6.10;90.20
82243;DHT22;71844;51.528;4.442;2023-12-20T04:45:47;6.10;90.10
82243;DHT22;71844;51.528;4.442;2023-12-20T04:48:14;6.10;90.10
82243;DHT22;71844;51.528;4.442;2023-12-20T04:50:41;6.10;90.10
82243;DHT22;71844;51.528;4.442;2023-12-20T04:53:08;6.10;90.10
82243;DHT22;71844;51.528;4.442;2023-12-20T04:55:35;6.10;90.00
82243;DHT22;71844;51.528;4.442;2023-12-20T04:58:03;6.10;90.10
82243;DHT22;71844;51.528;4.442;2023-12-20T05:00:30;6.10;90.00
82243;DHT22;71844;51.528;4.442;2023-12-20T05:02:57;6.10;89.90
82243;DHT22;71844;51.528;4.442;2023-12-20T05:05:24;6.10;90.00
82243;DHT22;71844;51.528;4.442;2023-12-20T05:07:50;6.10;90.20
82243;DHT22;71844;51.528;4.442;2023-12-20T05:10:19;6.10;90.10
82243;DHT22;71844;51.528;4.442;2023-12-20T05:12:46;6.10;90.10
82243;DHT22;71844;51.528;4.442;2023-12-20T05:15:13;6.10;90.00
82243;DHT22;71844;51.528;4.442;2023-12-20T05:17:40;6.10;90.00
82243;DHT22;71844;51.528;4.442;2023-12-20T05:20:07;6.10;89.90
82243;DHT22;71844;51.528;4.442;2023-12-20T05:22:35;6.10;89.90
82243;DHT22;71844;51.528;4.442;2023-12-20T05:25:02;6.10;89.80
82243;DHT22;71844;51.528;4.442;2023-12-20T05:27:28;6.10;89.90
82243;DHT22;71844;51.528;4.442;2023-12-20T05:29:55;6.10;90.10
82243;DHT22;71844;51.528;4.442;2023-12-20T05:32:24;6.10;89.80
82243;DHT22;71844;51.528;4.442;2023-12-20T05:34:52;6.10;89.90
82243;DHT22;71844;51.528;4.442;2023-12-20T05:37:19;6.10;89.90
82243;DHT22;71844;51.528;4.442;2023-12-20T05:39:46;6.10;89.80
82243;DHT22;71844;51.528;4.442;2023-12-20T05:42:12;6.10;89.70
82243;DHT22;71844;51.528;4.442;2023-12-20T05:44:39;6.10;89.90
82243;DHT22;71844;51.528;4.442;2023-12-20T05:47:06;6.00;89.90
82243;DHT22;71844;51.528;4.442;2023-12-20T05:49:33;6.00;89.70
82243;DHT22;71844;51.528;4.442;2023-12-20T05:52:00;6.00;89.80
82243;DHT22;71844;51.528;4.442;2023-12-20T05:54:29;6.00;90.00
82243;DHT22;71844;51.528;4.442;2023-12-20T05:56:56;6.00;90.10
82243;DHT22;71844;51.528;4.442;2023-12-20T05:59:23;6.00;89.90
82243;DHT22;71844;51.528;4.442;2023-12-20T06:01:50;6.00;89.80
82243;DHT22;71844;51.528;4.442;2023-12-20T06:04:19;6.10;90.00
82243;DHT22;71844;51.528;4.442;2023-12-20T06:06:49;6.10;90.00
82243;DHT22;71844;51.528;4.442;2023-12-20T06:09:16;6.00;89.60
82243;DHT22;71844;51.528;4.442;2023-12-20T06:11:43;6.10;89.80
82243;DHT22;71844;51.528;4.442;2023-12-20T06:14:09;6.10;89.90
82243;DHT22;71844;51.528;4.442;2023-12-20T06:16:36;6.10;89.80
82243;DHT22;71844;51.528;4.442;2023-12-20T06:19:03;6.10;89.90
82243;DHT22;71844;51.528;4.442;2023-12-20T06:24:16;6.10;89.80
82243;DHT22;71844;51.528;4.442;2023-12-20T06:26:42;6.10;89.80
82243;DHT22;71844;51.528;4.442;2023-12-20T06:29:09;6.10;89.80
82243;DHT22;71844;51.528;4.442;2023-12-20T06:31:36;6.10;89.80
82243;DHT22;71844;51.528;4.442;2023-12-20T06:34:03;6.10;89.80
82243;DHT22;71844;51.528;4.442;2023-12-20T06:36:30;6.10;89.70
82243;DHT22;71844;51.528;4.442;2023-12-20T06:38:57;6.10;89.70
82243;DHT22;71844;51.528;4.442;2023-12-20T06:41:24;6.10;89.40
82243;DHT22;71844;51.528;4.442;2023-12-20T06:43:51;6.10;89.60
82243;DHT22;71844;51.528;4.442;2023-12-20T06:46:19;6.10;89.70
82243;DHT22;71844;51.528;4.442;2023-12-20T06:48:46;6.10;89.70
82243;DHT22;71844;51.528;4.442;2023-12-20T06:51:16;6.10;89.40
82243;DHT22;71844;51.528;4.442;2023-12-20T06:53:43;6.10;89.60
82243;DHT22;71844;51.528;4.442;2023-12-20T06:56:11;6.10;89.40
82243;DHT22;71844;51.528;4.442;2023-12-20T06:58:45;6.10;89.40
82243;DHT22;71844;51.528;4.442;2023-12-20T07:01:15;6.10;89.70
82243;DHT22;71844;51.528;4.442;2023-12-20T07:03:42;6.10;89.70
82243;DHT22;71844;51.528;4.442;2023-12-20T07:06:09;6.10;89.60
82243;DHT22;71844;51.528;4.442;2023-12-20T07:08:36;6.10;89.60
82243;DHT22;71844;51.528;4.442;2023-12-20T07:11:03;6.10;89.60
82243;DHT22;71844;51.528;4.442;2023-12-20T07:13:30;6.10;89.60
82243;DHT22;71844;51.528;4.442;2023-12-20T07:15:58;6.10;89.70
82243;DHT22;71844;51.528;4.442;2023-12-20T07:18:24;6.10;89.70
82243;DHT22;71844;51.528;4.442;2023-12-20T07:20:51;6.10;89.80
82243;DHT22;71844;51.528;4.442;2023-12-20T07:23:18;6.10;89.60
82243;DHT22;71844;51.528;4.442;2023-12-20T07:25:47;6.10;89.60
82243;DHT22;71844;51.528;4.442;2023-12-20T07:28:14;6.10;89.60
82243;DHT22;71844;51.528;4.442;2023-12-20T07:30:40;6.00;89.50
82243;DHT22;71844;51.528;4.442;2023-12-20T07:33:10;6.10;89.60
82243;DHT22;71844;51.528;4.442;2023-12-20T07:35:39;6.00;89.60
82243;DHT22;71844;51.528;4.442;2023-12-20T07:38:05;6.00;89.70
82243;DHT22;71844;51.528;4.442;2023-12-20T07:40:33;6.00;89.70
82243;DHT22;71844;51.528;4.442;2023-12-20T07:43:00;6.00;89.60
82243;DHT22;71844;51.528;4.442;2023-12-20T07:45:27;6.00;89.60
82243;DHT22;71844;51.528;4.442;2023-12-20T07:47:53;6.00;89.70
82243;DHT22;71844;51.528;4.442;2023-12-20T07:50:21;6.00;89.80
82243;DHT22;71844;51.528;4.442;2023-12-20T07:52:48;6.10;89.70
82243;DHT22;71844;51.528;4.442;2023-12-20T07:55:14;6.00;89.90
82243;DHT22;71844;51.528;4.442;2023-12-20T07:57:41;6.10;89.90
82243;DHT22;71844;51.528;4.442;2023-12-20T08:00:09;6.10;89.90
82243;DHT22;71844;51.528;4.442;2023-12-20T08:02:42;6.10;89.90
82243;DHT22;71844;51.528;4.442;2023-12-20T08:05:09;6.10;90.00
82243;DHT22;71844;51.528;4.442;2023-12-20T08:07:37;6.20;89.90
82243;DHT22;71844;51.528;4.442;2023-12-20T08:10:11;6.20;90.00
82243;DHT22;71844;51.528;4.442;2023-12-20T08:12:38;6.20;90.10
82243;DHT22;71844;51.528;4.442;2023-12-20T08:15:06;6.30;90.20
82243;DHT22;71844;51.528;4.442;2023-12-20T08:17:33;6.30;90.40
82243;DHT22;71844;51.528;4.442;2023-12-20T08:20:00;6.40;90.40
82243;DHT22;71844;51.528;4.442;2023-12-20T08:22:27;6.50;90.10
82243;DHT22;71844;51.528;4.442;2023-12-20T08:24:54;6.50;90.10
82243;DHT22;71844;51.528;4.442;2023-12-20T08:27:21;6.50;90.00
82243;DHT22;71844;51.528;4.442;2023-12-20T08:29:55;6.60;90.10
82243;DHT22;71844;51.528;4.442;2023-12-20T08:32:24;6.70;90.00
82243;DHT22;71844;51.528;4.442;2023-12-20T08:34:51;6.70;89.60
82243;DHT22;71844;51.528;4.442;2023-12-20T08:37:18;6.60;89.60
82243;DHT22;71844;51.528;4.442;2023-12-20T08:39:45;6.60;89.80
82243;DHT22;71844;51.528;4.442;2023-12-20T08:42:12;6.60;89.80
82243;DHT22;71844;51.528;4.442;2023-12-20T08:44:39;6.60;89.90
82243;DHT22;71844;51.528;4.442;2023-12-20T08:47:06;6.60;90.00
82243;DHT22;71844;51.528;4.442;2023-12-20T08:49:32;6.60;90.00
82243;DHT22;71844;51.528;4.442;2023-12-20T08:51:59;6.60;90.10
82243;DHT22;71844;51.528;4.442;2023-12-20T08:54:26;6.60;90.00
82243;DHT22;71844;51.528;4.442;2023-12-20T08:56:53;6.60;89.80
82243;DHT22;71844;51.528;4.442;2023-12-20T08:59:20;6.60;89.90
82243;DHT22;71844;51.528;4.442;2023-12-20T09:01:47;6.60;89.90
82243;DHT22;71844;51.528;4.442;2023-12-20T09:04:15;6.60;90.00
82243;DHT22;71844;51.528;4.442;2023-12-20T09:06:42;6.60;90.20
82243;DHT22;71844;51.528;4.442;2023-12-20T09:09:09;6.70;90.10
82243;DHT22;71844;51.528;4.442;2023-12-20T09:11:40;6.70;90.10
82243;DHT22;71844;51.528;4.442;2023-12-20T09:14:07;6.80;90.10
82243;DHT22;71844;51.528;4.442;2023-12-20T09:16:34;6.80;90.10
82243;DHT22;71844;51.528;4.442;2023-12-20T09:19:01;6.90;90.10
82243;DHT22;71844;51.528;4.442;2023-12-20T09:21:28;6.90;90.00
82243;DHT22;71844;51.528;4.442;2023-12-20T09:23:55;6.90;89.90
82243;DHT22;71844;51.528;4.442;2023-12-20T09:26:22;6.90;90.00
82243;DHT22;71844;51.528;4.442;2023-12-20T09:28:48;7.00;89.90
82243;DHT22;71844;51.528;4.442;2023-12-20T09:31:15;7.00;89.90
82243;DHT22;71844;51.528;4.442;2023-12-20T09:33:42;7.00;89.90
82243;DHT22;71844;51.528;4.442;2023-12-20T09:36:10;7.00;89.90
82243;DHT22;71844;51.528;4.442;2023-12-20T09:38:37;7.00;89.80
82243;DHT22;71844;51.528;4.442;2023-12-20T09:41:04;7.10;89.80
82243;DHT22;71844;51.528;4.442;2023-12-20T09:43:37;7.10;89.80
82243;DHT22;71844;51.528;4.442;2023-12-20T09:46:06;7.10;89.60
82243;DHT22;71844;51.528;4.442;2023-12-20T09:48:34;7.10;89.60
82243;DHT22;71844;51.528;4.442;2023-12-20T09:51:03;7.10;89.50
82243;DHT22;71844;51.528;4.442;2023-12-20T09:53:31;7.20;89.60
82243;DHT22;71844;51.528;4.442;2023-12-20T09:55:59;7.20;89.60
82243;DHT22;71844;51.528;4.442;2023-12-20T09:58:27;7.20;89.60
82243;DHT22;71844;51.528;4.442;2023-12-20T10:00:55;7.20;89.50
82243;DHT22;71844;51.528;4.442;2023-12-20T10:03:25;7.30;89.40
82243;DHT22;71844;51.528;4.442;2023-12-20T10:05:55;7.30;89.30
82243;DHT22;71844;51.528;4.442;2023-12-20T10:08:24;7.30;89.20
82243;DHT22;71844;51.528;4.442;2023-12-20T10:10:51;7.30;89.30
82243;DHT22;71844;51.528;4.442;2023-12-20T10:13:18;7.30;89.20
82243;DHT22;71844;51.528;4.442;2023-12-20T10:15:45;7.40;89.10
82243;DHT22;71844;51.528;4.442;2023-12-20T10:18:12;7.40;89.30
82243;DHT22;71844;51.528;4.442;2023-12-20T10:20:40;7.40;89.10
82243;DHT22;71844;51.528;4.442;2023-12-20T10:23:08;7.40;89.20
82243;DHT22;71844;51.528;4.442;2023-12-20T10:25:36;7.40;89.30
82243;DHT22;71844;51.528;4.442;2023-12-20T10:28:13;7.50;89.10
82243;DHT22;71844;51.528;4.442;2023-12-20T10:30:41;7.50;89.10
82243;DHT22;71844;51.528;4.442;2023-12-20T10:33:10;7.50;89.20
82243;DHT22;71844;51.528;4.442;2023-12-20T10:35:39;7.50;89.10
82243;DHT22;71844;51.528;4.442;2023-12-20T10:38:11;7.50;89.00
82243;DHT22;71844;51.528;4.442;2023-12-20T10:40:40;7.50;89.00
82243;DHT22;71844;51.528;4.442;2023-12-20T10:43:08;7.60;89.00
82243;DHT22;71844;51.528;4.442;2023-12-20T10:45:36;7.60;89.00
82243;DHT22;71844;51.528;4.442;2023-12-20T10:48:04;7.60;89.00
82243;DHT22;71844;51.528;4.442;2023-12-20T10:50:31;7.60;88.90
82243;DHT22;71844;51.528;4.442;2023-12-20T10:52:59;7.60;89.10
82243;DHT22;71844;51.528;4.442;2023-12-20T10:55:27;7.60;88.90
82243;DHT22;71844;51.528;4.442;2023-12-20T10:58:00;7.70;88.90
82243;DHT22;71844;51.528;4.442;2023-12-20T11:00:29;7.70;88.90
82243;DHT22;71844;51.528;4.442;2023-12-20T11:03:00;7.70;89.00
82243;DHT22;71844;51.528;4.442;2023-12-20T11:08:03;7.80;88.70
82243;DHT22;71844;51.528;4.442;2023-12-20T11:13:22;7.80;88.60
82243;DHT22;71844;51.528;4.442;2023-12-20T11:15:50;7.80;88.60
82243;DHT22;71844;51.528;4.442;2023-12-20T11:18:17;7.90;88.70
82243;DHT22;71844;51.528;4.442;2023-12-20T11:20:44;7.90;88.70
82243;DHT22;71844;51.528;4.442;2023-12-20T11:23:11;7.90;88.80
82243;DHT22;71844;51.528;4.442;2023-12-20T11:25:55;8.00;88.70
82243;DHT22;71844;51.528;4.442;2023-12-20T11:28:24;8.10;88.70
82243;DHT22;71844;51.528;4.442;2023-12-20T11:30:56;8.10;88.40
82243;DHT22;71844;51.528;4.442;2023-12-20T11:33:30;8.20;88.10
82243;DHT22;71844;51.528;4.442;2023-12-20T11:35:58;8.30;88.20
82243;DHT22;71844;51.528;4.442;2023-12-20T11:38:26;8.40;88.20
82243;DHT22;71844;51.528;4.442;2023-12-20T11:40:56;8.50;88.10
82243;DHT22;71844;51.528;4.442;2023-12-20T11:43:29;8.60;87.70
82243;DHT22;71844;51.528;4.442;2023-12-20T11:46:05;8.80;86.10
82243;DHT22;71844;51.528;4.442;2023-12-20T11:48:35;8.90;87.40
82243;DHT22;71844;51.528;4.442;2023-12-20T11:51:02;9.00;86.70
82243;DHT22;71844;51.528;4.442;2023-12-20T11:53:35;9.00;86.60
82243;DHT22;71844;51.528;4.442;2023-12-20T11:56:07;9.10;86.10
82243;DHT22;71844;51.528;4.442;2023-12-20T11:58:35;9.10;86.50
82243;DHT22;71844;51.528;4.442;2023-12-20T12:01:02;9.10;86.00
82243;DHT22;71844;51.528;4.442;2023-12-20T12:03:31;9.10;85.90
82243;DHT22;71844;51.528;4.442;2023-12-20T12:05:58;9.00;85.90
82243;DHT22;71844;51.528;4.442;2023-12-20T12:08:25;9.00;85.80
82243;DHT22;71844;51.528;4.442;2023-12-20T12:10:52;9.00;85.80
82243;DHT22;71844;51.528;4.442;2023-12-20T12:13:19;8.90;85.40
82243;DHT22;71844;51.528;4.442;2023-12-20T12:15:46;8.90;85.30
82243;DHT22;71844;51.528;4.442;2023-12-20T12:18:16;8.90;85.50
82243;DHT22;71844;51.528;4.442;2023-12-20T12:20:43;8.90;85.40
82243;DHT22;71844;51.528;4.442;2023-12-20T12:23:10;8.90;85.10
82243;DHT22;71844;51.528;4.442;2023-12-20T12:25:37;8.90;85.30
82243;DHT22;71844;51.528;4.442;2023-12-20T12:28:08;8.90;85.30
82243;DHT22;71844;51.528;4.442;2023-12-20T12:30:35;8.90;85.20
82243;DHT22;71844;51.528;4.442;2023-12-20T12:33:12;8.80;85.20
82243;DHT22;71844;51.528;4.442;2023-12-20T12:35:40;8.90;85.20
82243;DHT22;71844;51.528;4.442;2023-12-20T12:38:08;8.90;85.20
82243;DHT22;71844;51.528;4.442;2023-12-20T12:40:35;8.90;85.20
82243;DHT22;71844;51.528;4.442;2023-12-20T12:43:03;8.90;85.30
82243;DHT22;71844;51.528;4.442;2023-12-20T12:45:31;9.10;85.60
82243;DHT22;71844;51.528;4.442;2023-12-20T12:47:59;9.20;85.30
82243;DHT22;71844;51.528;4.442;2023-12-20T12:50:26;9.30;85.00
82243;DHT22;71844;51.528;4.442;2023-12-20T12:52:55;9.30;84.50
82243;DHT22;71844;51.528;4.442;2023-12-20T12:55:22;9.40;84.60
82243;DHT22;71844;51.528;4.442;2023-12-20T12:57:49;9.40;84.40
82243;DHT22;71844;51.528;4.442;2023-12-20T13:00:16;9.40;84.20
82243;DHT22;71844;51.528;4.442;2023-12-20T13:02:43;9.40;84.10
82243;DHT22;71844;51.528;4.442;2023-12-20T13:05:10;9.40;84.10
82243;DHT22;71844;51.528;4.442;2023-12-20T13:07:37;9.40;84.00
82243;DHT22;71844;51.528;4.442;2023-12-20T13:10:06;9.40;83.90
82243;DHT22;71844;51.528;4.442;2023-12-20T13:12:33;9.40;83.50
82243;DHT22;71844;51.528;4.442;2023-12-20T13:15:00;9.40;83.60
82243;DHT22;71844;51.528;4.442;2023-12-20T13:17:27;9.40;83.70
82243;DHT22;71844;51.528;4.442;2023-12-20T13:19:57;9.40;83.40
82243;DHT22;71844;51.528;4.442;2023-12-20T13:22:24;9.40;83.20
82243;DHT22;71844;51.528;4.442;2023-12-20T13:24:51;9.40;83.30
82243;DHT22;71844;51.528;4.442;2023-12-20T13:27:18;9.40;83.10
82243;DHT22;71844;51.528;4.442;2023-12-20T13:29:45;9.40;83.20
82243;DHT22;71844;51.528;4.442;2023-12-20T13:32:12;9.40;83.00
82243;DHT22;71844;51.528;4.442;2023-12-20T13:34:39;9.30;83.00
82243;DHT22;71844;51.528;4.442;2023-12-20T13:37:06;9.30;83.00
82243;DHT22;71844;51.528;4.442;2023-12-20T13:39:33;9.30;83.20
82243;DHT22;71844;51.528;4.442;2023-12-20T13:42:00;9.30;83.00
82243;DHT22;71844;51.528;4.442;2023-12-20T13:44:27;9.30;83.00
82243;DHT22;71844;51.528;4.442;2023-12-20T13:46:54;9.30;82.70
82243;DHT22;71844;51.528;4.442;2023-12-20T13:49:48;9.30;82.70
82243;DHT22;71844;51.528;4.442;2023-12-20T13:52:22;9.30;82.80
82243;DHT22;71844;51.528;4.442;2023-12-20T13:54:49;9.30;82.60
82243;DHT22;71844;51.528;4.442;2023-12-20T13:57:16;9.30;82.60
82243;DHT22;71844;51.528;4.442;2023-12-20T13:59:47;9.30;82.50
82243;DHT22;71844;51.528;4.442;2023-12-20T14:02:14;9.30;82.60
82243;DHT22;71844;51.528;4.442;2023-12-20T14:04:41;9.30;82.50
82243;DHT22;71844;51.528;4.442;2023-12-20T14:07:10;9.30;82.50
82243;DHT22;71844;51.528;4.442;2023-12-20T14:09:39;9.30;82.30
82243;DHT22;71844;51.528;4.442;2023-12-20T14:12:12;9.20;82.40
82243;DHT22;71844;51.528;4.442;2023-12-20T14:14:42;9.20;82.30
82243;DHT22;71844;51.528;4.442;2023-12-20T14:17:12;9.20;82.20
82243;DHT22;71844;51.528;4.442;2023-12-20T14:19:41;9.20;82.20
82243;DHT22;71844;51.528;4.442;2023-12-20T14:22:08;9.20;82.30
82243;DHT22;71844;51.528;4.442;2023-12-20T14:24:35;9.10;82.50
82243;DHT22;71844;51.528;4.442;2023-12-20T14:27:03;9.10;82.60
82243;DHT22;71844;51.528;4.442;2023-12-20T14:29:30;9.10;82.70
82243;DHT22;71844;51.528;4.442;2023-12-20T14:31:56;9.10;82.80
82243;DHT22;71844;51.528;4.442;2023-12-20T14:34:23;9.00;83.00
82243;DHT22;71844;51.528;4.442;2023-12-20T14:36:51;9.10;83.00
82243;DHT22;71844;51.528;4.442;2023-12-20T14:39:19;9.00;83.00
82243;DHT22;71844;51.528;4.442;2023-12-20T14:41:46;9.00;83.10
82243;DHT22;71844;51.528;4.442;2023-12-20T14:44:13;9.00;83.10
82243;DHT22;71844;51.528;4.442;2023-12-20T14:46:40;9.00;83.20
82243;DHT22;71844;51.528;4.442;2023-12-20T14:49:08;9.00;83.20
82243;DHT22;71844;51.528;4.442;2023-12-20T14:51:35;9.00;83.20
82243;DHT22;71844;51.528;4.442;2023-12-20T14:54:04;9.00;83.30
82243;DHT22;71844;51.528;4.442;2023-12-20T14:56:32;9.00;83.30
82243;DHT22;71844;51.528;4.442;2023-12-20T14:58:58;9.00;83.30
82243;DHT22;71844;51.528;4.442;2023-12-20T15:01:29;9.00;83.40
82243;DHT22;71844;51.528;4.442;2023-12-20T15:03:58;9.00;83.40
82243;DHT22;71844;51.528;4.442;2023-12-20T15:06:24;9.00;83.40
82243;DHT22;71844;51.528;4.442;2023-12-20T15:08:52;9.00;83.50
82243;DHT22;71844;51.528;4.442;2023-12-20T15:11:19;9.00;83.50
82243;DHT22;71844;51.528;4.442;2023-12-20T15:13:46;9.00;83.50
82243;DHT22;71844;51.528;4.442;2023-12-20T15:16:21;9.00;83.60
82243;DHT22;71844;51.528;4.442;2023-12-20T15:18:48;9.00;83.60
82243;DHT22;71844;51.528;4.442;2023-12-20T15:21:15;8.90;83.60
82243;DHT22;71844;51.528;4.442;2023-12-20T15:23:45;9.00;83.60
82243;DHT22;71844;51.528;4.442;2023-12-20T15:26:38;8.90;83.60
82243;DHT22;71844;51.528;4.442;2023-12-20T15:29:05;8.90;83.50
82243;DHT22;71844;51.528;4.442;2023-12-20T15:31:33;8.80;83.80
82243;DHT22;71844;51.528;4.442;2023-12-20T15:33:59;8.80;83.80
82243;DHT22;71844;51.528;4.442;2023-12-20T15:36:26;8.70;84.20
82243;DHT22;71844;51.528;4.442;2023-12-20T15:38:53;8.70;84.10
82243;DHT22;71844;51.528;4.442;2023-12-20T15:41:21;8.70;84.40
82243;DHT22;71844;51.528;4.442;2023-12-20T15:43:48;8.70;84.50
82243;DHT22;71844;51.528;4.442;2023-12-20T15:46:15;8.60;84.70
82243;DHT22;71844;51.528;4.442;2023-12-20T15:48:42;8.60;84.50
82243;DHT22;71844;51.528;4.442;2023-12-20T15:51:09;8.60;84.70
82243;DHT22;71844;51.528;4.442;2023-12-20T15:53:36;8.60;84.80
82243;DHT22;71844;51.528;4.442;2023-12-20T15:56:04;8.60;84.90
82243;DHT22;71844;51.528;4.442;2023-12-20T15:58:31;8.60;84.90